Time;durP1;ratioP1;P1;durP2;ratioP2;P2;SDS_P1;SDS_P2;PMS_P1;PMS_P2;Temp;Humidity;BMP_temperature;BMP_pressure;BME280_temperature;BME280_humidity;BME280_pressure;Samples;Min_cycle;Max_cycle;Signal;HPM_P1;HPM_P2
2021/03/12 00:01:07;;;;;;;;;;;7.60;86.20;;;;;;6248336;22;19903;-89
2021/03/12 00:03:56;;;;;;;;;;;7.50;86.00;;;;;;6273964;22;19931;-86
2021/03/12 00:06:45;;;;;;;;;;;7.60;86.00;;;;;;6232008;22;19965;-85
2021/03/12 00:09:25;;;;;;;;;;;7.50;85.90;;;;;;6274748;22;19907;-85
2021/03/12 00:12:11;;;;;;;;;;;;;;;;;;;;;
2021/03/12 00:14:37;;;;;;;;;;;7.50;85.90;;;;;;6250538;22;19990;-85
2021/03/12 00:17:16;;;;;;;;;;;7.60;85.90;;;;;;6273901;22;19934;-87
2021/03/12 00:20:12;;;;;;;;;;;7.50;85.70;;;;;;6270861;22;19899;-86
2021/03/12 00:22:41;;;;;;;;;;;7.60;85.70;;;;;;6261680;22;19899;-85
2021/03/12 00:25:08;;;;;;;;;;;7.60;85.70;;;;;;6274569;22;19900;-86
2021/03/12 00:28:05;;;;;;;;;;;7.60;85.50;;;;;;6274069;22;19911;-86
2021/03/12 00:33:47;;;;;;;;;;;7.50;85.40;;;;;;6217834;22;19919;-86
2021/03/12 00:36:30;;;;;;;;;;;7.50;85.40;;;;;;6273968;22;19906;-85
2021/03/12 00:38:55;;;;;;;;;;;7.50;85.40;;;;;;6250535;22;19977;-86
2021/03/12 00:41:51;;;;;;;;;;;;;;;;;;;;;
2021/03/12 00:44:27;;;;;;;;;;;;;;;;;;;;;
2021/03/12 00:47:08;;;;;;;;;;;7.50;85.10;;;;;;6275454;22;19982;-84
2021/03/12 00:49:54;;;;;;;;;;;7.50;85.00;;;;;;6250656;22;19945;-85
2021/03/12 00:55:36;;;;;;;;;;;7.50;84.80;;;;;;6262320;22;20589;-85
2021/03/12 00:58:29;;;;;;;;;;;;;;;;;;;;;
2021/03/12 01:01:00;;;;;;;;;;;7.50;84.80;;;;;;6252871;22;19982;-85
2021/03/12 01:03:29;;;;;;;;;;;7.50;84.80;;;;;;6276852;22;19907;-85
2021/03/12 01:07:25;;;;;;;;;;;;;;;;;;;;;
2021/03/12 01:09:36;;;;;;;;;;;7.40;84.70;;;;;;6239804;22;19915;-86
2021/03/12 01:12:05;;;;;;;;;;;7.40;84.50;;;;;;6275923;22;19899;-85
2021/03/12 01:17:58;;;;;;;;;;;7.40;84.50;;;;;;6254140;22;20432;-86
2021/03/12 01:20:57;;;;;;;;;;;7.40;84.40;;;;;;6274509;22;19928;-86
2021/03/12 01:23:40;;;;;;;;;;;7.40;84.40;;;;;;6276776;22;19903;-86
2021/03/12 01:26:17;;;;;;;;;;;7.40;84.40;;;;;;6273657;22;19899;-85
2021/03/12 01:29:12;;;;;;;;;;;7.40;84.40;;;;;;6277061;22;19917;-87
2021/03/12 01:31:48;;;;;;;;;;;7.40;84.40;;;;;;6236285;22;19907;-85
2021/03/12 01:34:27;;;;;;;;;;;7.40;84.50;;;;;;6276853;22;19907;-86
2021/03/12 01:37:23;;;;;;;;;;;;;;;;;;;;;
2021/03/12 01:39:54;;;;;;;;;;;7.30;84.40;;;;;;6268321;22;19990;-86
2021/03/12 01:42:43;;;;;;;;;;;7.40;84.40;;;;;;6276184;22;19910;-85
2021/03/12 01:45:20;;;;;;;;;;;7.30;84.30;;;;;;6231251;22;19899;-85
2021/03/12 01:51:03;;;;;;;;;;;7.40;84.40;;;;;;6270345;22;19906;-86
2021/03/12 01:53:29;;;;;;;;;;;7.30;85.00;;;;;;6248724;22;20359;-85
2021/03/12 01:56:27;;;;;;;;;;;7.40;84.40;;;;;;6249253;22;19899;-86
2021/03/12 01:59:16;;;;;;;;;;;7.30;84.40;;;;;;6275023;22;20336;-85
2021/03/12 02:02:02;;;;;;;;;;;7.30;84.50;;;;;;6253270;22;19903;-86
2021/03/12 02:04:35;;;;;;;;;;;7.30;84.50;;;;;;6227430;22;20004;-86
2021/03/12 02:07:22;;;;;;;;;;;7.30;84.50;;;;;;6246873;22;19922;-85
2021/03/12 02:10:17;;;;;;;;;;;7.30;84.50;;;;;;6276170;22;19914;-85
2021/03/12 02:12:48;;;;;;;;;;;7.30;84.40;;;;;;6250495;22;20321;-86
2021/03/12 02:15:35;;;;;;;;;;;7.30;84.50;;;;;;6274642;22;19903;-88
2021/03/12 02:21:12;;;;;;;;;;;7.30;84.60;;;;;;6264243;22;19903;-85
2021/03/12 02:23:57;;;;;;;;;;;;;;;;;;;;;
2021/03/12 02:26:45;;;;;;;;;;;7.30;84.60;;;;;;6273031;22;19990;-87
2021/03/12 02:32:29;;;;;;;;;;;7.20;84.50;;;;;;6256542;22;19911;-86
2021/03/12 02:35:07;;;;;;;;;;;7.20;84.50;;;;;;6275954;22;19905;-86
2021/03/12 02:37:40;;;;;;;;;;;7.20;84.50;;;;;;6269412;22;20001;-85
2021/03/12 02:40:47;;;;;;;;;;;7.20;84.30;;;;;;6271139;22;19903;-85
2021/03/12 02:43:44;;;;;;;;;;;7.20;84.30;;;;;;6275547;22;20321;-85
2021/03/12 02:46:29;;;;;;;;;;;;;;;;;;;;;
2021/03/12 02:49:14;;;;;;;;;;;7.20;84.20;;;;;;6276661;22;19978;-85
2021/03/12 02:51:42;;;;;;;;;;;7.20;84.30;;;;;;6275715;22;19998;-85
2021/03/12 02:54:21;;;;;;;;;;;;;;;;;;;;;
2021/03/12 02:57:10;;;;;;;;;;;7.20;84.30;;;;;;6275815;22;19974;-85
2021/03/12 03:02:44;;;;;;;;;;;7.20;84.20;;;;;;6259452;22;20268;-85
2021/03/12 03:05:18;;;;;;;;;;;7.20;84.20;;;;;;6237344;22;19899;-86
2021/03/12 03:07:58;;;;;;;;;;;7.10;84.10;;;;;;6273987;22;19982;-86
2021/03/12 03:10:33;;;;;;;;;;;7.10;84.20;;;;;;6274234;22;19989;-86
2021/03/12 03:13:04;;;;;;;;;;;7.10;84.20;;;;;;6249163;22;20206;-87
2021/03/12 03:15:48;;;;;;;;;;;7.10;84.10;;;;;;6248379;22;19955;-85
2021/03/12 03:18:37;;;;;;;;;;;7.10;84.20;;;;;;6275145;22;19944;-86
2021/03/12 03:21:12;;;;;;;;;;;7.20;84.20;;;;;;6275299;22;19909;-84
2021/03/12 03:26:31;;;;;;;;;;;7.10;84.20;;;;;;6211151;22;20310;-85
2021/03/12 03:29:17;;;;;;;;;;;7.10;84.30;;;;;;6275061;22;20222;-85
2021/03/12 03:31:42;;;;;;;;;;;7.10;84.30;;;;;;6273209;22;19903;-87
2021/03/12 03:34:23;;;;;;;;;;;7.10;84.30;;;;;;6272703;22;19944;-85
2021/03/12 03:36:57;;;;;;;;;;;7.00;84.20;;;;;;6248197;22;20203;-85
2021/03/12 03:39:30;;;;;;;;;;;7.00;84.30;;;;;;6273666;22;19980;-88
2021/03/12 03:42:02;;;;;;;;;;;7.00;84.30;;;;;;6271778;22;19906;-86
2021/03/12 03:44:44;;;;;;;;;;;7.00;84.20;;;;;;6272872;22;20297;-86
2021/03/12 03:47:39;;;;;;;;;;;;;;;;;;;;;
2021/03/12 03:50:19;;;;;;;;;;;6.90;84.30;;;;;;6275986;22;19989;-85
2021/03/12 03:53:02;;;;;;;;;;;6.90;84.40;;;;;;6273122;22;19904;-85
2021/03/12 03:55:45;;;;;;;;;;;6.90;84.40;;;;;;6274008;22;19973;-87
2021/03/12 04:01:34;;;;;;;;;;;;;;;;;;;;;
2021/03/12 04:04:03;;;;;;;;;;;6.90;84.30;;;;;;6275476;22;20372;-85
2021/03/12 04:07:07;;;;;;;;;;;;;;;;;;;;;
2021/03/12 04:09:31;;;;;;;;;;;6.80;84.20;;;;;;6271843;22;19915;-86
2021/03/12 04:12:06;;;;;;;;;;;6.80;84.20;;;;;;6271509;22;19907;-87
2021/03/12 04:14:53;;;;;;;;;;;;;;;;;;;;;
2021/03/12 04:17:42;;;;;;;;;;;6.70;84.20;;;;;;6275118;22;20291;-87
2021/03/12 04:20:19;;;;;;;;;;;6.70;84.20;;;;;;6246364;22;19906;-85
2021/03/12 04:22:44;;;;;;;;;;;6.70;84.20;;;;;;6271910;22;19938;-86
2021/03/12 04:25:10;;;;;;;;;;;6.60;84.20;;;;;;6248087;22;19903;-85
2021/03/12 04:30:35;;;;;;;;;;;6.50;84.30;;;;;;6253819;22;19899;-85
2021/03/12 04:33:06;;;;;;;;;;;6.50;84.40;;;;;;6273173;22;19944;-85
2021/03/12 04:35:44;;;;;;;;;;;;;;;;;;;;;
2021/03/12 04:38:16;;;;;;;;;;;6.40;84.60;;;;;;6274405;22;19981;-85
2021/03/12 04:40:47;;;;;;;;;;;6.30;84.60;;;;;;6272190;22;19903;-86
2021/03/12 04:43:18;;;;;;;;;;;6.30;84.60;;;;;;6271055;22;19906;-85
2021/03/12 04:51:45;;;;;;;;;;;6.30;84.60;;;;;;6243730;22;19907;-85
2021/03/12 04:54:18;;;;;;;;;;;6.30;84.70;;;;;;6271049;22;20300;-85
2021/03/12 04:56:51;;;;;;;;;;;6.20;84.70;;;;;;6272608;22;19910;-85
2021/03/12 04:59:26;;;;;;;;;;;6.20;84.70;;;;;;6247590;22;19906;-86
2021/03/12 05:02:04;;;;;;;;;;;;;;;;;;;;;
2021/03/12 05:04:49;;;;;;;;;;;;;;;;;;;;;
2021/03/12 05:07:23;;;;;;;;;;;6.10;84.90;;;;;;6242169;22;19987;-85
2021/03/12 05:09:52;;;;;;;;;;;6.10;85.00;;;;;;6241603;23;19935;-86
2021/03/12 05:12:46;;;;;;;;;;;6.00;85.10;;;;;;6269354;22;19904;-86
2021/03/12 05:15:14;;;;;;;;;;;6.00;85.20;;;;;;6239542;22;19908;-85
2021/03/12 05:18:00;;;;;;;;;;;;;;;;;;;;;
2021/03/12 05:20:28;;;;;;;;;;;6.00;85.30;;;;;;6240500;23;19986;-85
2021/03/12 05:23:03;;;;;;;;;;;6.00;85.30;;;;;;6243305;22;20145;-86
2021/03/12 05:25:44;;;;;;;;;;;;;;;;;;;;;
2021/03/12 05:28:29;;;;;;;;;;;6.00;85.40;;;;;;6240111;23;19982;-85
2021/03/12 05:31:11;;;;;;;;;;;6.00;85.40;;;;;;6239755;23;20302;-85
2021/03/12 05:36:30;;;;;;;;;;;5.90;85.40;;;;;;6243654;23;19961;-85
2021/03/12 05:39:09;;;;;;;;;;;;;;;;;;;;;
2021/03/12 05:48:17;;;;;;;;;;;;;;;;;;;;;
2021/03/12 05:51:37;;;;;;;;;;;;;;;;;;;;;
2021/03/12 06:00:55;;;;;;;;;;;;;;;;;;;;;
2021/03/12 06:03:53;;;;;;;;;;;5.70;85.70;;;;;;6161119;23;19941;-94
2021/03/12 06:09:52;;;;;;;;;;;;;;;;;;;;;
2021/03/12 06:16:02;;;;;;;;;;;;;;;;;;;;;
2021/03/12 06:24:59;;;;;;;;;;;;;;;;;;;;;
2021/03/12 06:44:12;;;;;;;;;;;5.80;85.70;;;;;;6033957;23;20359;-93
2021/03/12 06:47:24;;;;;;;;;;;5.80;85.70;;;;;;6007811;23;19989;-94
2021/03/12 06:53:37;;;;;;;;;;;;;;;;;;;;;
2021/03/12 07:03:02;;;;;;;;;;;;;;;;;;;;;
2021/03/12 07:09:08;;;;;;;;;;;5.80;85.80;;;;;;6024057;23;20348;-92
2021/03/12 07:18:22;;;;;;;;;;;;;;;;;;;;;
2021/03/12 07:24:31;;;;;;;;;;;5.90;85.70;;;;;;6063734;23;19909;-94
2021/03/12 07:27:34;;;;;;;;;;;5.90;85.70;;;;;;6107910;23;19932;-95
2021/03/12 07:30:37;;;;;;;;;;;5.90;85.70;;;;;;6186334;22;19907;-94
2021/03/12 07:36:31;;;;;;;;;;;;;;;;;;;;;
2021/03/12 07:55:37;;;;;;;;;;;;;;;;;;;;;
2021/03/12 08:14:42;;;;;;;;;;;;;;;;;;;;;
2021/03/12 08:30:33;;;;;;;;;;;;;;;;;;;;;
2021/03/12 09:05:11;;;;;;;;;;;;;;;;;;;;;
2021/03/12 09:23:56;;;;;;;;;;;;;;;;;;;;;
2021/03/12 10:08:45;;;;;;;;;;;;;;;;;;;;;
2021/03/12 15:03:46;;;;;;;;;;;;;;;;;;;;;
2021/03/12 15:06:45;;;;;;;;;;;;;;;;;;;;;
2021/03/12 15:26:11;;;;;;;;;;;;;;;;;;;;;
2021/03/12 15:29:08;;;;;;;;;;;8.10;85.10;;;;;;6022638;23;19996;-91
2021/03/12 15:35:37;;;;;;;;;;;;;;;;;;;;;
2021/03/12 15:41:45;;;;;;;;;;;;;;;;;;;;;
2021/03/12 15:44:29;;;;;;;;;;;8.10;85.40;;;;;;6040441;23;19996;-92
2021/03/12 16:00:08;;;;;;;;;;;8.10;85.30;;;;;;6109783;23;19901;-92
2021/03/12 16:03:09;;;;;;;;;;;;;;;;;;;;;
2021/03/12 16:06:04;;;;;;;;;;;;;;;;;;;;;
2021/03/12 16:09:00;;;;;;;;;;;8.10;85.10;;;;;;6104562;23;19985;-93
2021/03/12 16:21:40;;;;;;;;;;;8.20;85.20;;;;;;6106848;23;19924;-94
2021/03/12 16:24:42;;;;;;;;;;;;;;;;;;;;;
2021/03/12 16:33:45;;;;;;;;;;;8.30;85.30;;;;;;6120235;23;19901;-92
2021/03/12 17:02:59;;;;;;;;;;;;;;;;;;;;;
2021/03/12 17:21:39;;;;;;;;;;;;;;;;;;;;;
2021/03/12 17:24:50;;;;;;;;;;;;;;;;;;;;;
2021/03/12 17:34:13;;;;;;;;;;;;;;;;;;;;;
2021/03/12 17:55:58;;;;;;;;;;;8.10;85.60;;;;;;6036169;23;19962;-88
2021/03/12 17:58:43;;;;;;;;;;;;;;;;;;;;;
2021/03/12 18:01:17;;;;;;;;;;;8.10;85.60;;;;;;6276251;22;19974;-86
2021/03/12 18:04:06;;;;;;;;;;;;;;;;;;;;;
2021/03/12 18:09:41;;;;;;;;;;;;;;;;;;;;;
2021/03/12 18:12:19;;;;;;;;;;;8.00;85.40;;;;;;6160827;23;19990;-86
2021/03/12 18:14:54;;;;;;;;;;;8.00;85.40;;;;;;6156495;23;19983;-86
2021/03/12 18:17:52;;;;;;;;;;;8.00;85.50;;;;;;6134177;23;19908;-85
2021/03/12 18:27:10;;;;;;;;;;;;;;;;;;;;;
2021/03/12 18:30:08;;;;;;;;;;;7.90;85.40;;;;;;6183011;23;20003;-86
2021/03/12 18:33:09;;;;;;;;;;;;;;;;;;;;;
2021/03/12 18:38:53;;;;;;;;;;;8.00;85.60;;;;;;6277828;22;19899;-87
2021/03/12 18:51:19;;;;;;;;;;;;;;;;;;;;;
2021/03/12 18:54:15;;;;;;;;;;;;;;;;;;;;;
2021/03/12 19:03:13;;;;;;;;;;;7.90;84.80;;;;;;6036473;23;19905;-88
2021/03/12 19:06:08;;;;;;;;;;;7.90;84.60;;;;;;6039918;23;20239;-89
2021/03/12 19:15:20;;;;;;;;;;;;;;;;;;;;;
2021/03/12 19:18:25;;;;;;;;;;;;;;;;;;;;;
2021/03/12 19:21:16;;;;;;;;;;;7.80;84.20;;;;;;6101163;23;19983;-87
2021/03/12 19:24:04;;;;;;;;;;;7.80;84.20;;;;;;6133466;23;20405;-86
2021/03/12 19:26:40;;;;;;;;;;;7.80;84.20;;;;;;6186672;23;19904;-87
2021/03/12 19:29:36;;;;;;;;;;;7.80;84.20;;;;;;6213701;23;19910;-89
2021/03/12 19:32:24;;;;;;;;;;;7.80;84.20;;;;;;6177569;23;19979;-86
2021/03/12 19:35:20;;;;;;;;;;;;;;;;;;;;;
2021/03/12 19:38:27;;;;;;;;;;;7.80;84.30;;;;;;6201919;23;19975;-88
2021/03/12 19:41:12;;;;;;;;;;;7.80;84.40;;;;;;6188488;23;19900;-89
2021/03/12 19:43:42;;;;;;;;;;;7.70;84.30;;;;;;6188199;23;19899;-88
2021/03/12 19:46:31;;;;;;;;;;;7.70;84.40;;;;;;6188648;23;19911;-87
2021/03/12 19:49:43;;;;;;;;;;;;;;;;;;;;;
2021/03/12 19:52:40;;;;;;;;;;;;;;;;;;;;;
2021/03/12 19:55:51;;;;;;;;;;;7.70;84.50;;;;;;6147289;23;19987;-87
2021/03/12 19:58:53;;;;;;;;;;;7.60;84.60;;;;;;6151943;23;19915;-88
2021/03/12 20:04:26;;;;;;;;;;;7.60;84.60;;;;;;6156567;23;19940;-87
2021/03/12 20:07:07;;;;;;;;;;;7.60;84.60;;;;;;6149474;23;19901;-88
2021/03/12 20:16:01;;;;;;;;;;;7.60;84.50;;;;;;6155385;23;20267;-88
2021/03/12 20:18:46;;;;;;;;;;;7.60;84.40;;;;;;6174165;23;19923;-89
2021/03/12 20:21:24;;;;;;;;;;;;;;;;;;;;;
2021/03/12 20:24:26;;;;;;;;;;;7.50;84.30;;;;;;6182849;23;20390;-90
2021/03/12 20:27:22;;;;;;;;;;;;;;;;;;;;;
2021/03/12 20:33:33;;;;;;;;;;;;;;;;;;;;;
2021/03/12 20:39:25;;;;;;;;;;;7.40;84.80;;;;;;6229399;23;19930;-87
2021/03/12 20:42:14;;;;;;;;;;;7.40;84.20;;;;;;6233329;23;19937;-86
2021/03/12 20:45:24;;;;;;;;;;;7.40;84.10;;;;;;6218918;23;19903;-88
2021/03/12 20:55:13;;;;;;;;;;;;;;;;;;;;;
2021/03/12 21:00:33;;;;;;;;;;;7.40;84.20;;;;;;6216965;23;19962;-87
2021/03/12 21:03:08;;;;;;;;;;;7.40;84.20;;;;;;6244141;23;19900;-87
2021/03/12 21:08:46;;;;;;;;;;;7.40;84.60;;;;;;6246402;23;20360;-86
2021/03/12 21:14:08;;;;;;;;;;;7.40;83.90;;;;;;6225006;23;19899;-86
2021/03/12 21:16:37;;;;;;;;;;;7.40;83.90;;;;;;6245693;23;20388;-88
2021/03/12 21:19:08;;;;;;;;;;;7.30;83.80;;;;;;6245847;23;19903;-86
2021/03/12 21:22:10;;;;;;;;;;;;;;;;;;;;;
2021/03/12 21:24:54;;;;;;;;;;;7.30;83.80;;;;;;6222728;23;20321;-88
2021/03/12 21:30:32;;;;;;;;;;;;;;;;;;;;;
2021/03/12 21:33:22;;;;;;;;;;;7.30;83.90;;;;;;6247548;23;19974;-87
2021/03/12 21:36:13;;;;;;;;;;;7.30;83.90;;;;;;6219998;23;19942;-86
2021/03/12 21:38:48;;;;;;;;;;;7.30;83.90;;;;;;6219535;23;20214;-88
2021/03/12 21:41:21;;;;;;;;;;;7.30;83.90;;;;;;6220545;23;19910;-86
2021/03/12 21:44:12;;;;;;;;;;;7.30;83.90;;;;;;6220390;23;19904;-88
2021/03/12 21:47:00;;;;;;;;;;;7.30;84.00;;;;;;6246414;23;19970;-87
2021/03/12 21:49:31;;;;;;;;;;;7.30;83.90;;;;;;6246899;23;19911;-85
2021/03/12 21:52:04;;;;;;;;;;;7.30;83.90;;;;;;6244855;23;19903;-86
2021/03/12 21:55:17;;;;;;;;;;;7.30;83.90;;;;;;6243136;22;19994;-86
2021/03/12 21:58:09;;;;;;;;;;;7.30;83.90;;;;;;6244741;23;20131;-86
2021/03/12 22:00:54;;;;;;;;;;;;;;;;;;;;;
2021/03/12 22:09:18;;;;;;;;;;;7.40;83.90;;;;;;6181042;23;19912;-85
2021/03/12 22:12:14;;;;;;;;;;;;;;;;;;;;;
2021/03/12 22:15:03;;;;;;;;;;;7.40;83.80;;;;;;6237356;23;19990;-86
2021/03/12 22:17:39;;;;;;;;;;;;;;;;;;;;;
2021/03/12 22:20:31;;;;;;;;;;;7.40;83.80;;;;;;6245536;23;19985;-86
2021/03/12 22:23:00;;;;;;;;;;;7.40;83.90;;;;;;6214334;23;19903;-86
2021/03/12 22:25:38;;;;;;;;;;;7.40;83.70;;;;;;6243868;23;19942;-86
2021/03/12 22:28:06;;;;;;;;;;;7.40;83.70;;;;;;6244207;23;19911;-86
2021/03/12 22:30:50;;;;;;;;;;;;;;;;;;;;;
2021/03/12 22:33:38;;;;;;;;;;;7.40;83.70;;;;;;6222373;23;19978;-86
2021/03/12 22:36:23;;;;;;;;;;;7.40;83.70;;;;;;6168729;23;19931;-86
2021/03/12 22:44:29;;;;;;;;;;;7.40;83.70;;;;;;6213147;23;19903;-86
2021/03/12 22:47:03;;;;;;;;;;;7.40;83.70;;;;;;6244373;23;19899;-86
2021/03/12 22:49:34;;;;;;;;;;;7.40;83.60;;;;;;6220037;23;19990;-86
2021/03/12 22:52:04;;;;;;;;;;;7.40;83.70;;;;;;6218862;23;19990;-86
2021/03/12 22:54:33;;;;;;;;;;;7.40;83.60;;;;;;6243607;23;19994;-86
2021/03/12 23:00:43;;;;;;;;;;;7.40;83.60;;;;;;6210592;23;19913;-85
2021/03/12 23:02:59;;;;;;;;;;;7.40;83.60;;;;;;6222706;23;19967;-86
2021/03/12 23:08:49;;;;;;;;;;;;;;;;;;;;;
2021/03/12 23:11:22;;;;;;;;;;;7.40;83.60;;;;;;6243003;23;19974;-87
2021/03/12 23:13:56;;;;;;;;;;;7.40;83.70;;;;;;6243892;23;19978;-89
2021/03/12 23:16:32;;;;;;;;;;;7.40;83.70;;;;;;6243990;23;19914;-86
2021/03/12 23:19:15;;;;;;;;;;;7.50;83.70;;;;;;6244712;23;19906;-86
2021/03/12 23:22:07;;;;;;;;;;;7.40;83.60;;;;;;6218518;23;19942;-86
2021/03/12 23:28:01;;;;;;;;;;;;;;;;;;;;;
2021/03/12 23:30:42;;;;;;;;;;;7.40;83.70;;;;;;6246368;23;19994;-86
2021/03/12 23:33:28;;;;;;;;;;;7.40;83.60;;;;;;6243232;23;19900;-87
2021/03/12 23:36:24;;;;;;;;;;;7.40;83.70;;;;;;6218532;23;19905;-86
2021/03/12 23:42:01;;;;;;;;;;;7.40;83.60;;;;;;6196099;23;20317;-86
2021/03/12 23:44:32;;;;;;;;;;;7.40;83.70;;;;;;6244412;23;19911;-86
2021/03/12 23:47:16;;;;;;;;;;;;;;;;;;;;;
2021/03/12 23:50:02;;;;;;;;;;;;;;;;;;;;;
